Fulton County Airport

About

Name: Fulton County Airport
Identifier:  RCR/KRCR
Local Time:  26. Jan 23:23 EST

Location

Fulton County Airport

Statistics

Flights Per Day:
0 Flights
Distance: 290km (180mi)
Flights Delayed:
66% (0 Flights/Day Delayed)
Average Delay: 35 minutes

Current Weather

 0 C (Humidity: 86%)
  3kt (5km/h / 3mph) from 290°
  Overcast at 2,200 feet (670 meter)
  11km (7 mi.)
 METAR KRCR 270355Z AUTO 29003KT 7SM OVC022 00/M02 A2990 RMK AO2

Claim Compensation

Claim compensation for your flight delay or cancellation
Flight delays happen, but that doesn’t mean you have to accept them. You may be entitled to as much as €600/$700 in compensation if your flight has been delayed, canceled or overbooked within the last three years.

Current Delays

Departures

N/A

Arrivals

N/A

Destinations

Map

Top Destinations

Airport Flights
per week
Seats
per week
  South Bend (SBN) 0 - 0 0
  Ankeny (QQK) 0 - 0 0
  Washington (WSG) 0 - 0 0

Airlines & Planes

Top Airlines

Airline Flights
per day
Seats
per day
  Nolinor Aviation 0 -
  Flybe Nordic 0 -

Top Models

model Flights seats